HWL2420 CYVR-KLAX
Flight info
| Callsign | HWL2420 |
|---|---|
| Flight time | 2h 13m |
| Altitude | 37000 |
| Route | SEA J5 SUMMA DCT 4230N12050W DCT FRA J7 REBRG BAYST1 |
| Aircraft | B77W/H-SDE1E2E3FGHIJ2J3J4J5M1RWXY/LB1D1 |
Departure
| Time | 2026-05-08 03:32 |
|---|---|
| Airport | Vancouver International Airport (CYVR) |
Arrival
| Time | 2026-05-08 05:45 |
|---|---|
| Airport | Los Angeles International Airport (KLAX) |
| Time | Latitude | Longitude | Altitude | Speed | Heading |
|---|---|---|---|---|---|
| 2026-05-08 02:39 | 49.19856 | -123.17481 | 15 ft | 0 kts | 158° |
| 2026-05-08 03:10 | 49.19859 | -123.17483 | 15 ft | 2 kts | 160° |
| 2026-05-08 03:11 | 49.19874 | -123.17488 | 15 ft | 2 kts | 181° |
| 2026-05-08 03:11 | 49.19888 | -123.17485 | 15 ft | 1 kts | 198° |
| 2026-05-08 03:11 | 49.19901 | -123.17476 | 15 ft | 2 kts | 214° |
| 2026-05-08 03:11 | 49.19913 | -123.17461 | 15 ft | 2 kts | 231° |
| 2026-05-08 03:12 | 49.19921 | -123.17442 | 15 ft | 2 kts | 247° |
| 2026-05-08 03:12 | 49.19925 | -123.17421 | 15 ft | 2 kts | 264° |
| 2026-05-08 03:12 | 49.19924 | -123.17398 | 15 ft | 2 kts | 281° |
| 2026-05-08 03:12 | 49.19921 | -123.17376 | 15 ft | 2 kts | 286° |
| 2026-05-08 03:13 | 49.19920 | -123.17370 | 15 ft | 0 kts | 285° |
| 2026-05-08 03:15 | 49.19931 | -123.17385 | 15 ft | 3 kts | 329° |
| 2026-05-08 03:16 | 49.19954 | -123.17396 | 15 ft | 4 kts | 347° |
| 2026-05-08 03:16 | 49.19994 | -123.17429 | 15 ft | 8 kts | 308° |
| 2026-05-08 03:16 | 49.20014 | -123.17533 | 15 ft | 12 kts | 280° |
| 2026-05-08 03:16 | 49.20030 | -123.17681 | 15 ft | 16 kts | 279° |
| 2026-05-08 03:17 | 49.20051 | -123.17879 | 15 ft | 20 kts | 280° |
| 2026-05-08 03:17 | 49.20076 | -123.18090 | 15 ft | 19 kts | 280° |
| 2026-05-08 03:17 | 49.20098 | -123.18282 | 15 ft | 17 kts | 280° |
| 2026-05-08 03:17 | 49.20118 | -123.18463 | 15 ft | 16 kts | 279° |
| 2026-05-08 03:18 | 49.20136 | -123.18635 | 15 ft | 16 kts | 279° |
| 2026-05-08 03:18 | 49.20155 | -123.18804 | 15 ft | 16 kts | 281° |
| 2026-05-08 03:18 | 49.20169 | -123.18971 | 15 ft | 14 kts | 254° |
| 2026-05-08 03:18 | 49.20086 | -123.19044 | 15 ft | 14 kts | 189° |
| 2026-05-08 03:19 | 49.19963 | -123.19074 | 15 ft | 21 kts | 189° |
| 2026-05-08 03:19 | 49.19822 | -123.19111 | 15 ft | 19 kts | 190° |
| 2026-05-08 03:19 | 49.19690 | -123.19147 | 15 ft | 18 kts | 191° |
| 2026-05-08 03:19 | 49.19570 | -123.19164 | 15 ft | 16 kts | 164° |
| 2026-05-08 03:20 | 49.19480 | -123.19073 | 15 ft | 15 kts | 140° |
| 2026-05-08 03:20 | 49.19401 | -123.18973 | 15 ft | 14 kts | 141° |
| 2026-05-08 03:20 | 49.19317 | -123.18870 | 15 ft | 17 kts | 143° |
| 2026-05-08 03:20 | 49.19206 | -123.18745 | 15 ft | 22 kts | 142° |
| 2026-05-08 03:21 | 49.19083 | -123.18598 | 15 ft | 21 kts | 141° |
| 2026-05-08 03:21 | 49.18973 | -123.18458 | 15 ft | 18 kts | 129° |
| 2026-05-08 03:21 | 49.18936 | -123.18276 | 15 ft | 19 kts | 97° |
| 2026-05-08 03:21 | 49.18912 | -123.18059 | 15 ft | 21 kts | 100° |
| 2026-05-08 03:22 | 49.18885 | -123.17828 | 15 ft | 22 kts | 99° |
| 2026-05-08 03:22 | 49.18856 | -123.17578 | 15 ft | 25 kts | 100° |
| 2026-05-08 03:22 | 49.18828 | -123.17316 | 15 ft | 24 kts | 99° |
| 2026-05-08 03:22 | 49.18800 | -123.17074 | 15 ft | 22 kts | 100° |
| 2026-05-08 03:23 | 49.18773 | -123.16848 | 15 ft | 20 kts | 100° |
| 2026-05-08 03:23 | 49.18751 | -123.16640 | 15 ft | 19 kts | 99° |
| 2026-05-08 03:23 | 49.18730 | -123.16447 | 15 ft | 17 kts | 100° |
| 2026-05-08 03:23 | 49.18690 | -123.16280 | 15 ft | 16 kts | 129° |
| 2026-05-08 03:24 | 49.18635 | -123.16139 | 15 ft | 14 kts | 101° |
| 2026-05-08 03:24 | 49.18608 | -123.16046 | 15 ft | 0 kts | 152° |
| 2026-05-08 03:30 | 49.18588 | -123.16038 | 15 ft | 5 kts | 170° |
| 2026-05-08 03:30 | 49.18505 | -123.16053 | 15 ft | 6 kts | 199° |
| 2026-05-08 03:31 | 49.18487 | -123.16216 | 15 ft | 23 kts | 279° |
| 2026-05-08 03:31 | 49.18704 | -123.18106 | 15 ft | 152 kts | 279° |
| 2026-05-08 03:32 | 49.18918 | -123.19935 | 178 ft | 187 kts | 280° |
| 2026-05-08 03:32 | 49.19103 | -123.21915 | 835 ft | 194 kts | 275° |
| 2026-05-08 03:32 | 49.19233 | -123.23955 | 1833 ft | 193 kts | 269° |
| 2026-05-08 03:32 | 49.19108 | -123.25957 | 2531 ft | 199 kts | 263° |
| 2026-05-08 03:33 | 49.18924 | -123.28069 | 3296 ft | 201 kts | 263° |
| 2026-05-08 03:33 | 49.18739 | -123.30158 | 4059 ft | 203 kts | 263° |
| 2026-05-08 03:33 | 49.18550 | -123.32289 | 4807 ft | 206 kts | 263° |
| 2026-05-08 03:33 | 49.18353 | -123.34512 | 5440 ft | 218 kts | 264° |
| 2026-05-08 03:34 | 49.18125 | -123.36885 | 5997 ft | 234 kts | 257° |
| 2026-05-08 03:34 | 49.17331 | -123.39130 | 6465 ft | 255 kts | 225° |
| 2026-05-08 03:34 | 49.15717 | -123.40456 | 6904 ft | 276 kts | 190° |
| 2026-05-08 03:34 | 49.13817 | -123.40182 | 7621 ft | 285 kts | 160° |
| 2026-05-08 03:35 | 49.11974 | -123.39041 | 8634 ft | 285 kts | 157° |
| 2026-05-08 03:35 | 49.10220 | -123.37645 | 9477 ft | 290 kts | 142° |
| 2026-05-08 03:35 | 49.08692 | -123.35704 | 10304 ft | 295 kts | 143° |
| 2026-05-08 03:35 | 49.06993 | -123.33781 | 10922 ft | 310 kts | 144° |
| 2026-05-08 03:36 | 49.05220 | -123.31808 | 11490 ft | 326 kts | 145° |
| 2026-05-08 03:36 | 49.03381 | -123.29743 | 12040 ft | 342 kts | 144° |
| 2026-05-08 03:36 | 49.01433 | -123.27548 | 12643 ft | 357 kts | 144° |
| 2026-05-08 03:36 | 48.99395 | -123.25234 | 13203 ft | 372 kts | 144° |
| 2026-05-08 03:37 | 48.97249 | -123.22887 | 13750 ft | 386 kts | 151° |
| 2026-05-08 03:37 | 48.94835 | -123.21121 | 14430 ft | 395 kts | 159° |
| 2026-05-08 03:37 | 48.92229 | -123.19514 | 15233 ft | 401 kts | 160° |
| 2026-05-08 03:37 | 48.89642 | -123.17934 | 16005 ft | 407 kts | 160° |
| 2026-05-08 03:38 | 48.87023 | -123.16277 | 16773 ft | 413 kts | 156° |
| 2026-05-08 03:38 | 48.84484 | -123.13989 | 17495 ft | 422 kts | 146° |
| 2026-05-08 03:38 | 48.82140 | -123.11205 | 18181 ft | 429 kts | 143° |
| 2026-05-08 03:38 | 48.79803 | -123.08328 | 18958 ft | 433 kts | 143° |
| 2026-05-08 03:39 | 48.77465 | -123.05434 | 19595 ft | 440 kts | 143° |
| 2026-05-08 03:39 | 48.75186 | -123.02282 | 20244 ft | 448 kts | 136° |
| 2026-05-08 03:39 | 48.73016 | -122.98780 | 20911 ft | 452 kts | 138° |
| 2026-05-08 03:39 | 48.70560 | -122.95737 | 21617 ft | 452 kts | 149° |
| 2026-05-08 03:40 | 48.67842 | -122.93411 | 22254 ft | 453 kts | 159° |
| 2026-05-08 03:40 | 48.64898 | -122.91712 | 22830 ft | 456 kts | 165° |
| 2026-05-08 03:40 | 48.61838 | -122.90143 | 23390 ft | 462 kts | 165° |
| 2026-05-08 03:40 | 48.58778 | -122.88584 | 23982 ft | 466 kts | 165° |
| 2026-05-08 03:41 | 48.55660 | -122.86998 | 24577 ft | 470 kts | 165° |
| 2026-05-08 03:41 | 48.52537 | -122.85412 | 25151 ft | 475 kts | 165° |
| 2026-05-08 03:41 | 48.49431 | -122.83835 | 25709 ft | 480 kts | 165° |
| 2026-05-08 03:41 | 48.46207 | -122.82201 | 26298 ft | 484 kts | 165° |
| 2026-05-08 03:42 | 48.43027 | -122.80590 | 26836 ft | 488 kts | 165° |
| 2026-05-08 03:42 | 48.39788 | -122.78952 | 27390 ft | 493 kts | 165° |
| 2026-05-08 03:42 | 48.36563 | -122.77323 | 27974 ft | 496 kts | 165° |
| 2026-05-08 03:42 | 48.33211 | -122.75632 | 28506 ft | 501 kts | 165° |
| 2026-05-08 03:43 | 48.29924 | -122.73975 | 29019 ft | 506 kts | 165° |
| 2026-05-08 03:43 | 48.26636 | -122.72319 | 29584 ft | 509 kts | 165° |
| 2026-05-08 03:43 | 48.23347 | -122.70664 | 30291 ft | 509 kts | 165° |
| 2026-05-08 03:43 | 48.20021 | -122.68990 | 31097 ft | 506 kts | 165° |
| 2026-05-08 03:44 | 48.16671 | -122.67306 | 31901 ft | 503 kts | 165° |
| 2026-05-08 03:44 | 48.13372 | -122.65649 | 32684 ft | 500 kts | 166° |
| 2026-05-08 03:44 | 48.10050 | -122.63983 | 33316 ft | 499 kts | 166° |
| 2026-05-08 03:44 | 48.06787 | -122.62349 | 33840 ft | 499 kts | 166° |
| 2026-05-08 03:45 | 48.03502 | -122.60706 | 34427 ft | 499 kts | 166° |
| 2026-05-08 03:45 | 48.00279 | -122.59094 | 35091 ft | 497 kts | 166° |
| 2026-05-08 03:45 | 47.97015 | -122.57464 | 35776 ft | 494 kts | 166° |
| 2026-05-08 03:45 | 47.93745 | -122.55832 | 36424 ft | 492 kts | 166° |
| 2026-05-08 03:46 | 47.90500 | -122.54215 | 36988 ft | 490 kts | 166° |
| 2026-05-08 03:46 | 47.84000 | -122.50983 | 37066 ft | 496 kts | 166° |
| 2026-05-08 03:47 | 47.77414 | -122.47717 | 37074 ft | 507 kts | 166° |
| 2026-05-08 03:47 | 47.70722 | -122.44405 | 37070 ft | 515 kts | 166° |
| 2026-05-08 03:48 | 47.63941 | -122.41049 | 37074 ft | 514 kts | 166° |
| 2026-05-08 03:48 | 47.57143 | -122.37691 | 37076 ft | 514 kts | 166° |
| 2026-05-08 03:49 | 47.50317 | -122.34321 | 37073 ft | 514 kts | 166° |
| 2026-05-08 03:49 | 47.43520 | -122.30957 | 37064 ft | 514 kts | 166° |
| 2026-05-08 03:50 | 47.36663 | -122.28043 | 37064 ft | 512 kts | 170° |
| 2026-05-08 03:50 | 47.29770 | -122.25391 | 37065 ft | 511 kts | 170° |
| 2026-05-08 03:51 | 47.22885 | -122.22711 | 37072 ft | 512 kts | 169° |
| 2026-05-08 03:51 | 47.15996 | -122.20013 | 37075 ft | 510 kts | 169° |
| 2026-05-08 03:52 | 47.09135 | -122.17323 | 37080 ft | 514 kts | 169° |
| 2026-05-08 03:52 | 47.02255 | -122.14623 | 37074 ft | 512 kts | 169° |
| 2026-05-08 03:53 | 46.95314 | -122.11904 | 37078 ft | 513 kts | 169° |
| 2026-05-08 03:53 | 46.88410 | -122.09206 | 37069 ft | 514 kts | 169° |
| 2026-05-08 03:54 | 46.81519 | -122.06516 | 37070 ft | 513 kts | 169° |
| 2026-05-08 03:54 | 46.74609 | -122.03827 | 37071 ft | 512 kts | 169° |
| 2026-05-08 03:55 | 46.67711 | -122.01150 | 37072 ft | 512 kts | 169° |
| 2026-05-08 03:55 | 46.60829 | -121.98489 | 37071 ft | 512 kts | 170° |
| 2026-05-08 03:56 | 46.53853 | -121.96355 | 37074 ft | 512 kts | 173° |
| 2026-05-08 03:56 | 46.46789 | -121.94283 | 37070 ft | 511 kts | 173° |
| 2026-05-08 03:57 | 46.39849 | -121.92230 | 37076 ft | 511 kts | 173° |
| 2026-05-08 03:57 | 46.32855 | -121.90154 | 37079 ft | 511 kts | 172° |
| 2026-05-08 03:58 | 46.25878 | -121.88083 | 37067 ft | 513 kts | 172° |
| 2026-05-08 03:58 | 46.18907 | -121.86014 | 37075 ft | 511 kts | 172° |
| 2026-05-08 03:59 | 46.11888 | -121.83935 | 37085 ft | 510 kts | 172° |
| 2026-05-08 03:59 | 46.04953 | -121.81885 | 37083 ft | 512 kts | 172° |
| 2026-05-08 04:00 | 45.97932 | -121.79814 | 37095 ft | 512 kts | 172° |
| 2026-05-08 04:00 | 45.90979 | -121.77769 | 37073 ft | 514 kts | 172° |
| 2026-05-08 04:01 | 45.83963 | -121.75709 | 37056 ft | 512 kts | 172° |
| 2026-05-08 04:01 | 45.76954 | -121.73656 | 37049 ft | 512 kts | 172° |
| 2026-05-08 04:02 | 45.69969 | -121.71617 | 37048 ft | 512 kts | 172° |
| 2026-05-08 04:02 | 45.62938 | -121.69569 | 37052 ft | 513 kts | 172° |
| 2026-05-08 04:03 | 45.55959 | -121.67542 | 37060 ft | 514 kts | 172° |
| 2026-05-08 04:03 | 45.45445 | -121.64497 | 37077 ft | 514 kts | 172° |
| 2026-05-08 04:04 | 45.38405 | -121.62464 | 37071 ft | 513 kts | 172° |
| 2026-05-08 04:04 | 45.31343 | -121.60431 | 37084 ft | 516 kts | 172° |
| 2026-05-08 04:05 | 45.24336 | -121.58418 | 37087 ft | 513 kts | 172° |
| 2026-05-08 04:05 | 45.17299 | -121.56402 | 37089 ft | 517 kts | 171° |
| 2026-05-08 04:06 | 45.10273 | -121.54393 | 37081 ft | 515 kts | 172° |
| 2026-05-08 04:06 | 45.03179 | -121.52371 | 37077 ft | 515 kts | 172° |
| 2026-05-08 04:07 | 44.97326 | -121.50706 | 37076 ft | 514 kts | 171° |
| 2026-05-08 04:07 | 44.89134 | -121.48383 | 37080 ft | 516 kts | 171° |
| 2026-05-08 04:08 | 44.82053 | -121.46378 | 37080 ft | 513 kts | 171° |
| 2026-05-08 04:08 | 44.75052 | -121.44403 | 37083 ft | 515 kts | 171° |
| 2026-05-08 04:09 | 44.68004 | -121.42419 | 37081 ft | 514 kts | 171° |
| 2026-05-08 04:09 | 44.60988 | -121.40448 | 37088 ft | 515 kts | 171° |
| 2026-05-08 04:10 | 44.53924 | -121.38469 | 37092 ft | 515 kts | 171° |
| 2026-05-08 04:10 | 44.46899 | -121.36507 | 37092 ft | 515 kts | 171° |
| 2026-05-08 04:11 | 44.41036 | -121.34872 | 37092 ft | 516 kts | 172° |
| 2026-05-08 04:11 | 44.32832 | -121.32589 | 37086 ft | 516 kts | 172° |
| 2026-05-08 04:12 | 44.25806 | -121.30640 | 37105 ft | 515 kts | 172° |
| 2026-05-08 04:12 | 44.18787 | -121.28697 | 37108 ft | 515 kts | 172° |
| 2026-05-08 04:13 | 44.11721 | -121.26747 | 37112 ft | 515 kts | 172° |
| 2026-05-08 04:13 | 44.04688 | -121.24810 | 37109 ft | 515 kts | 172° |
| 2026-05-08 04:14 | 43.97636 | -121.22873 | 37115 ft | 514 kts | 172° |
| 2026-05-08 04:14 | 43.90633 | -121.20953 | 37137 ft | 514 kts | 172° |
| 2026-05-08 04:15 | 43.83542 | -121.19015 | 37145 ft | 514 kts | 172° |
| 2026-05-08 04:15 | 43.76570 | -121.17113 | 37171 ft | 514 kts | 172° |
| 2026-05-08 04:16 | 43.69510 | -121.15192 | 37175 ft | 514 kts | 172° |
| 2026-05-08 04:16 | 43.62499 | -121.13289 | 37170 ft | 512 kts | 172° |
| 2026-05-08 04:17 | 43.55490 | -121.11391 | 37165 ft | 513 kts | 172° |
| 2026-05-08 04:17 | 43.48483 | -121.09499 | 37160 ft | 517 kts | 172° |
| 2026-05-08 04:18 | 43.41346 | -121.07576 | 37165 ft | 523 kts | 172° |
| 2026-05-08 04:18 | 43.34163 | -121.05644 | 37173 ft | 523 kts | 172° |
| 2026-05-08 04:19 | 43.27038 | -121.03732 | 37176 ft | 523 kts | 172° |
| 2026-05-08 04:19 | 43.19890 | -121.01820 | 37180 ft | 522 kts | 172° |
| 2026-05-08 04:20 | 43.12706 | -120.99902 | 37187 ft | 522 kts | 172° |
| 2026-05-08 04:20 | 43.05581 | -120.98004 | 37196 ft | 521 kts | 172° |
| 2026-05-08 04:21 | 42.98476 | -120.96117 | 37202 ft | 522 kts | 172° |
| 2026-05-08 04:21 | 42.91288 | -120.94212 | 37202 ft | 522 kts | 172° |
| 2026-05-08 04:22 | 42.84185 | -120.92333 | 37206 ft | 520 kts | 171° |
| 2026-05-08 04:22 | 42.77084 | -120.90459 | 37205 ft | 519 kts | 171° |
| 2026-05-08 04:23 | 42.69961 | -120.88585 | 37201 ft | 520 kts | 171° |
| 2026-05-08 04:23 | 42.62860 | -120.86720 | 37206 ft | 519 kts | 171° |
| 2026-05-08 04:24 | 42.55761 | -120.84860 | 37214 ft | 518 kts | 171° |
| 2026-05-08 04:24 | 42.48638 | -120.83003 | 37219 ft | 518 kts | 172° |
| 2026-05-08 04:25 | 42.41550 | -120.81242 | 37221 ft | 518 kts | 172° |
| 2026-05-08 04:25 | 42.34463 | -120.79491 | 37219 ft | 517 kts | 172° |
| 2026-05-08 04:26 | 42.27372 | -120.77741 | 37217 ft | 518 kts | 172° |
| 2026-05-08 04:26 | 42.20242 | -120.75983 | 37215 ft | 518 kts | 172° |
| 2026-05-08 04:27 | 42.13153 | -120.74239 | 37219 ft | 518 kts | 172° |
| 2026-05-08 04:27 | 42.06084 | -120.72502 | 37219 ft | 517 kts | 172° |
| 2026-05-08 04:28 | 41.98945 | -120.70753 | 37225 ft | 516 kts | 172° |
| 2026-05-08 04:28 | 41.93066 | -120.69315 | 37228 ft | 516 kts | 171° |
| 2026-05-08 04:29 | 41.84802 | -120.67299 | 37219 ft | 516 kts | 171° |
| 2026-05-08 04:29 | 41.77722 | -120.65575 | 37218 ft | 516 kts | 171° |
| 2026-05-08 04:30 | 41.70667 | -120.63862 | 37209 ft | 516 kts | 171° |
| 2026-05-08 04:30 | 41.63591 | -120.62147 | 37205 ft | 516 kts | 171° |
| 2026-05-08 04:31 | 41.56569 | -120.60449 | 37193 ft | 515 kts | 171° |
| 2026-05-08 04:31 | 41.49504 | -120.58745 | 37177 ft | 515 kts | 171° |
| 2026-05-08 04:32 | 41.42467 | -120.57050 | 37181 ft | 513 kts | 171° |
| 2026-05-08 04:32 | 41.35386 | -120.55350 | 37196 ft | 514 kts | 171° |
| 2026-05-08 04:33 | 41.28346 | -120.53662 | 37211 ft | 513 kts | 171° |
| 2026-05-08 04:33 | 41.21239 | -120.51962 | 37220 ft | 513 kts | 171° |
| 2026-05-08 04:34 | 41.14223 | -120.50288 | 37227 ft | 512 kts | 171° |
| 2026-05-08 04:34 | 41.07158 | -120.48606 | 37235 ft | 512 kts | 171° |
| 2026-05-08 04:35 | 41.00142 | -120.46939 | 37244 ft | 513 kts | 171° |
| 2026-05-08 04:35 | 40.93081 | -120.45265 | 37248 ft | 511 kts | 171° |
| 2026-05-08 04:36 | 40.86036 | -120.43599 | 37247 ft | 512 kts | 171° |
| 2026-05-08 04:36 | 40.79005 | -120.41939 | 37252 ft | 511 kts | 171° |
| 2026-05-08 04:37 | 40.71942 | -120.40276 | 37263 ft | 511 kts | 171° |
| 2026-05-08 04:37 | 40.64947 | -120.38631 | 37257 ft | 511 kts | 171° |
| 2026-05-08 04:38 | 40.57874 | -120.36973 | 37251 ft | 511 kts | 171° |
| 2026-05-08 04:38 | 40.50849 | -120.35329 | 37238 ft | 511 kts | 171° |
| 2026-05-08 04:39 | 40.43816 | -120.33686 | 37225 ft | 510 kts | 171° |
| 2026-05-08 04:39 | 40.36759 | -120.32042 | 37224 ft | 510 kts | 171° |
| 2026-05-08 04:40 | 40.29745 | -120.30411 | 37223 ft | 510 kts | 171° |
| 2026-05-08 04:40 | 40.22690 | -120.28773 | 37224 ft | 510 kts | 171° |
| 2026-05-08 04:41 | 40.15697 | -120.27154 | 37240 ft | 510 kts | 171° |
| 2026-05-08 04:41 | 40.08690 | -120.25535 | 37258 ft | 509 kts | 171° |
| 2026-05-08 04:42 | 40.01668 | -120.23916 | 37275 ft | 509 kts | 171° |
| 2026-05-08 04:42 | 39.95850 | -120.22577 | 37274 ft | 509 kts | 171° |
| 2026-05-08 04:43 | 39.87623 | -120.20687 | 37266 ft | 509 kts | 171° |
| 2026-05-08 04:43 | 39.80659 | -120.19092 | 37250 ft | 509 kts | 171° |
| 2026-05-08 04:44 | 39.73634 | -120.17485 | 37248 ft | 509 kts | 171° |
| 2026-05-08 04:44 | 39.66589 | -120.15878 | 37261 ft | 509 kts | 171° |
| 2026-05-08 04:45 | 39.59619 | -120.14290 | 37257 ft | 509 kts | 171° |
| 2026-05-08 04:45 | 39.52602 | -120.12695 | 37260 ft | 510 kts | 171° |
| 2026-05-08 04:46 | 39.45583 | -120.11103 | 37252 ft | 509 kts | 171° |
| 2026-05-08 04:46 | 39.38573 | -120.09516 | 37250 ft | 509 kts | 171° |
| 2026-05-08 04:47 | 39.31553 | -120.07931 | 37252 ft | 510 kts | 171° |
| 2026-05-08 04:47 | 39.24546 | -120.06351 | 37262 ft | 509 kts | 171° |
| 2026-05-08 04:48 | 39.17536 | -120.04775 | 37281 ft | 509 kts | 171° |
| 2026-05-08 04:48 | 39.10515 | -120.03198 | 37293 ft | 509 kts | 171° |
| 2026-05-08 04:49 | 39.03512 | -120.01629 | 37301 ft | 510 kts | 172° |
| 2026-05-08 04:49 | 38.96482 | -120.00057 | 37270 ft | 509 kts | 171° |
| 2026-05-08 04:50 | 38.89449 | -119.98488 | 37281 ft | 510 kts | 172° |
| 2026-05-08 04:50 | 38.82420 | -119.96922 | 37296 ft | 510 kts | 171° |
| 2026-05-08 04:51 | 38.75377 | -119.95357 | 37340 ft | 511 kts | 171° |
| 2026-05-08 04:51 | 38.69528 | -119.94059 | 37384 ft | 510 kts | 171° |
| 2026-05-08 04:52 | 38.61323 | -119.92242 | 37379 ft | 509 kts | 171° |
| 2026-05-08 04:52 | 38.54368 | -119.90706 | 37389 ft | 510 kts | 171° |
| 2026-05-08 04:53 | 38.48471 | -119.89405 | 37392 ft | 510 kts | 171° |
| 2026-05-08 04:53 | 38.41434 | -119.87856 | 37379 ft | 510 kts | 171° |
| 2026-05-08 04:54 | 38.33266 | -119.86062 | 37366 ft | 509 kts | 171° |
| 2026-05-08 04:54 | 38.26260 | -119.84526 | 37362 ft | 510 kts | 171° |
| 2026-05-08 04:55 | 38.19223 | -119.82986 | 37353 ft | 510 kts | 171° |
| 2026-05-08 04:55 | 38.12173 | -119.81448 | 37348 ft | 510 kts | 171° |
| 2026-05-08 04:56 | 38.05142 | -119.79916 | 37340 ft | 510 kts | 171° |
| 2026-05-08 04:56 | 37.98094 | -119.78382 | 37335 ft | 510 kts | 171° |
| 2026-05-08 04:57 | 37.91063 | -119.76856 | 37337 ft | 509 kts | 171° |
| 2026-05-08 04:57 | 37.84050 | -119.75337 | 37325 ft | 510 kts | 171° |
| 2026-05-08 04:58 | 37.77046 | -119.73823 | 37327 ft | 509 kts | 171° |
| 2026-05-08 04:58 | 37.69996 | -119.72301 | 37315 ft | 510 kts | 171° |
| 2026-05-08 04:59 | 37.63012 | -119.70796 | 37313 ft | 510 kts | 171° |
| 2026-05-08 04:59 | 37.55941 | -119.69276 | 37300 ft | 509 kts | 171° |
| 2026-05-08 05:00 | 37.48945 | -119.67775 | 37297 ft | 509 kts | 171° |
| 2026-05-08 05:00 | 37.43097 | -119.66522 | 37269 ft | 509 kts | 171° |
| 2026-05-08 05:01 | 37.34901 | -119.64771 | 37238 ft | 510 kts | 171° |
| 2026-05-08 05:01 | 37.27984 | -119.63295 | 37199 ft | 510 kts | 171° |
| 2026-05-08 05:02 | 37.21011 | -119.61809 | 37165 ft | 510 kts | 171° |
| 2026-05-08 05:02 | 37.15244 | -119.60583 | 37150 ft | 510 kts | 171° |
| 2026-05-08 05:03 | 37.07135 | -119.59650 | 37123 ft | 508 kts | 181° |
| 2026-05-08 05:03 | 37.01282 | -119.59733 | 37094 ft | 508 kts | 181° |
| 2026-05-08 05:04 | 36.92970 | -119.59872 | 37085 ft | 509 kts | 181° |
| 2026-05-08 05:04 | 36.85919 | -119.59992 | 37062 ft | 509 kts | 181° |
| 2026-05-08 05:05 | 36.78944 | -119.60111 | 37050 ft | 497 kts | 181° |
| 2026-05-08 05:05 | 36.75521 | -119.60169 | 37043 ft | 482 kts | 181° |
| 2026-05-08 05:05 | 36.72171 | -119.60226 | 37035 ft | 473 kts | 181° |
| 2026-05-08 05:06 | 36.65629 | -119.60338 | 37038 ft | 477 kts | 181° |
| 2026-05-08 05:06 | 36.58987 | -119.60452 | 37036 ft | 476 kts | 181° |
| 2026-05-08 05:07 | 36.52336 | -119.60566 | 37040 ft | 476 kts | 181° |
| 2026-05-08 05:07 | 36.45729 | -119.60679 | 37029 ft | 477 kts | 181° |
| 2026-05-08 05:08 | 36.40234 | -119.60774 | 37031 ft | 476 kts | 181° |
| 2026-05-08 05:08 | 36.32525 | -119.60905 | 37020 ft | 476 kts | 181° |
| 2026-05-08 05:09 | 36.25875 | -119.61018 | 37017 ft | 475 kts | 181° |
| 2026-05-08 05:09 | 36.19308 | -119.61130 | 37015 ft | 475 kts | 181° |
| 2026-05-08 05:10 | 36.09369 | -119.61298 | 37004 ft | 475 kts | 181° |
| 2026-05-08 05:11 | 36.02858 | -119.61409 | 36995 ft | 475 kts | 181° |
| 2026-05-08 05:11 | 35.96317 | -119.62251 | 36998 ft | 474 kts | 195° |
| 2026-05-08 05:12 | 35.90093 | -119.64518 | 36994 ft | 474 kts | 198° |
| 2026-05-08 05:12 | 35.83741 | -119.66902 | 36998 ft | 471 kts | 198° |
| 2026-05-08 05:12 | 35.80674 | -119.68053 | 36817 ft | 468 kts | 198° |
| 2026-05-08 05:13 | 35.77531 | -119.69231 | 36355 ft | 471 kts | 198° |
| 2026-05-08 05:13 | 35.75448 | -119.70010 | 36000 ft | 474 kts | 198° |
| 2026-05-08 05:13 | 35.71229 | -119.71590 | 35421 ft | 476 kts | 198° |
| 2026-05-08 05:13 | 35.68061 | -119.72774 | 35147 ft | 476 kts | 198° |
| 2026-05-08 05:14 | 35.64895 | -119.73737 | 34847 ft | 476 kts | 192° |
| 2026-05-08 05:14 | 35.61615 | -119.74543 | 34565 ft | 476 kts | 192° |
| 2026-05-08 05:14 | 35.58333 | -119.75335 | 34289 ft | 476 kts | 192° |
| 2026-05-08 05:14 | 35.55117 | -119.76112 | 33991 ft | 477 kts | 192° |
| 2026-05-08 05:15 | 35.51867 | -119.76897 | 33696 ft | 477 kts | 192° |
| 2026-05-08 05:15 | 35.48542 | -119.77700 | 33388 ft | 479 kts | 192° |
| 2026-05-08 05:15 | 35.45246 | -119.78497 | 33073 ft | 481 kts | 192° |
| 2026-05-08 05:15 | 35.41950 | -119.79293 | 32771 ft | 482 kts | 192° |
| 2026-05-08 05:16 | 35.38687 | -119.80080 | 32502 ft | 483 kts | 191° |
| 2026-05-08 05:16 | 35.35314 | -119.80621 | 32202 ft | 485 kts | 183° |
| 2026-05-08 05:16 | 35.31937 | -119.80537 | 31883 ft | 487 kts | 174° |
| 2026-05-08 05:16 | 35.28553 | -119.79820 | 31550 ft | 489 kts | 165° |
| 2026-05-08 05:17 | 35.25317 | -119.78485 | 31284 ft | 490 kts | 156° |
| 2026-05-08 05:17 | 35.22242 | -119.76530 | 31076 ft | 490 kts | 147° |
| 2026-05-08 05:17 | 35.19449 | -119.74066 | 30937 ft | 488 kts | 141° |
| 2026-05-08 05:18 | 35.14159 | -119.68939 | 30833 ft | 482 kts | 141° |
| 2026-05-08 05:18 | 35.11501 | -119.66393 | 30540 ft | 474 kts | 141° |
| 2026-05-08 05:18 | 35.08895 | -119.63916 | 29979 ft | 468 kts | 141° |
| 2026-05-08 05:18 | 35.07197 | -119.62311 | 29595 ft | 465 kts | 141° |
| 2026-05-08 05:19 | 35.03801 | -119.59115 | 28844 ft | 457 kts | 141° |
| 2026-05-08 05:19 | 35.01284 | -119.56757 | 28293 ft | 452 kts | 141° |
| 2026-05-08 05:19 | 34.98788 | -119.54424 | 27746 ft | 447 kts | 141° |
| 2026-05-08 05:19 | 34.96285 | -119.52091 | 27194 ft | 448 kts | 141° |
| 2026-05-08 05:20 | 34.93797 | -119.49778 | 26633 ft | 458 kts | 141° |
| 2026-05-08 05:20 | 34.92072 | -119.48177 | 26236 ft | 457 kts | 141° |
| 2026-05-08 05:20 | 34.88689 | -119.45095 | 25566 ft | 447 kts | 142° |
| 2026-05-08 05:20 | 34.86187 | -119.42857 | 25148 ft | 437 kts | 142° |
| 2026-05-08 05:21 | 34.83750 | -119.40681 | 24724 ft | 429 kts | 142° |
| 2026-05-08 05:21 | 34.81350 | -119.38537 | 24294 ft | 420 kts | 142° |
| 2026-05-08 05:21 | 34.78973 | -119.36414 | 23865 ft | 412 kts | 142° |
| 2026-05-08 05:21 | 34.76687 | -119.34373 | 23461 ft | 404 kts | 143° |
| 2026-05-08 05:22 | 34.75182 | -119.33030 | 23199 ft | 399 kts | 143° |
| 2026-05-08 05:22 | 34.72219 | -119.30421 | 22653 ft | 394 kts | 143° |
| 2026-05-08 05:22 | 34.69984 | -119.28470 | 22215 ft | 393 kts | 143° |
| 2026-05-08 05:22 | 34.67753 | -119.26524 | 21778 ft | 390 kts | 143° |
| 2026-05-08 05:23 | 34.65582 | -119.24629 | 21355 ft | 387 kts | 143° |
| 2026-05-08 05:23 | 34.63399 | -119.22736 | 20938 ft | 385 kts | 143° |
| 2026-05-08 05:23 | 34.61248 | -119.20882 | 20547 ft | 383 kts | 143° |
| 2026-05-08 05:23 | 34.59065 | -119.19002 | 20148 ft | 382 kts | 144° |
| 2026-05-08 05:24 | 34.56896 | -119.17135 | 19749 ft | 381 kts | 143° |
| 2026-05-08 05:24 | 34.55489 | -119.15917 | 19487 ft | 380 kts | 143° |
| 2026-05-08 05:24 | 34.52583 | -119.13341 | 19163 ft | 394 kts | 143° |
| 2026-05-08 05:24 | 34.50278 | -119.11295 | 19156 ft | 410 kts | 143° |
| 2026-05-08 05:25 | 34.47984 | -119.09265 | 19153 ft | 412 kts | 143° |
| 2026-05-08 05:25 | 34.45620 | -119.07175 | 19147 ft | 412 kts | 143° |
| 2026-05-08 05:25 | 34.43304 | -119.05114 | 19166 ft | 412 kts | 141° |
| 2026-05-08 05:25 | 34.41058 | -119.02956 | 19191 ft | 411 kts | 140° |
| 2026-05-08 05:26 | 34.38831 | -119.00790 | 19209 ft | 411 kts | 140° |
| 2026-05-08 05:26 | 34.36579 | -118.98607 | 19252 ft | 411 kts | 140° |
| 2026-05-08 05:26 | 34.34278 | -118.96382 | 19283 ft | 412 kts | 140° |
| 2026-05-08 05:26 | 34.32031 | -118.94214 | 19325 ft | 413 kts | 140° |
| 2026-05-08 05:27 | 34.30515 | -118.92753 | 19334 ft | 413 kts | 140° |
| 2026-05-08 05:27 | 34.27496 | -118.89851 | 18690 ft | 405 kts | 140° |
| 2026-05-08 05:27 | 34.25312 | -118.87753 | 18116 ft | 389 kts | 140° |
| 2026-05-08 05:27 | 34.23214 | -118.85740 | 17580 ft | 376 kts | 140° |
| 2026-05-08 05:28 | 34.21135 | -118.83855 | 17029 ft | 365 kts | 147° |
| 2026-05-08 05:28 | 34.18937 | -118.82458 | 16692 ft | 349 kts | 153° |
| 2026-05-08 05:28 | 34.16778 | -118.81112 | 16368 ft | 333 kts | 143° |
| 2026-05-08 05:28 | 34.14964 | -118.79378 | 15912 ft | 323 kts | 137° |
| 2026-05-08 05:29 | 34.13288 | -118.77590 | 15357 ft | 318 kts | 136° |
| 2026-05-08 05:29 | 34.11662 | -118.75823 | 14769 ft | 315 kts | 136° |
| 2026-05-08 05:29 | 34.10021 | -118.74037 | 14166 ft | 312 kts | 136° |
| 2026-05-08 05:29 | 34.08395 | -118.72269 | 13680 ft | 309 kts | 136° |
| 2026-05-08 05:30 | 34.06796 | -118.70533 | 13294 ft | 307 kts | 136° |
| 2026-05-08 05:30 | 34.05206 | -118.68807 | 12920 ft | 301 kts | 136° |
| 2026-05-08 05:30 | 34.04189 | -118.67668 | 12682 ft | 294 kts | 130° |
| 2026-05-08 05:30 | 34.02943 | -118.64803 | 11896 ft | 289 kts | 101° |
| 2026-05-08 05:31 | 34.02601 | -118.62421 | 11367 ft | 286 kts | 96° |
| 2026-05-08 05:31 | 34.02361 | -118.60037 | 10841 ft | 284 kts | 95° |
| 2026-05-08 05:31 | 34.02143 | -118.57723 | 10309 ft | 283 kts | 95° |
| 2026-05-08 05:31 | 34.01923 | -118.55382 | 9792 ft | 281 kts | 95° |
| 2026-05-08 05:32 | 34.01707 | -118.53095 | 9499 ft | 270 kts | 95° |
| 2026-05-08 05:32 | 34.01500 | -118.50893 | 9302 ft | 257 kts | 95° |
| 2026-05-08 05:32 | 34.01303 | -118.48800 | 8963 ft | 250 kts | 95° |
| 2026-05-08 05:32 | 34.01104 | -118.46770 | 8535 ft | 243 kts | 98° |
| 2026-05-08 05:33 | 34.00514 | -118.44840 | 8054 ft | 243 kts | 117° |
| 2026-05-08 05:33 | 33.99651 | -118.43085 | 7810 ft | 244 kts | 121° |
| 2026-05-08 05:33 | 33.98743 | -118.41351 | 7668 ft | 245 kts | 121° |
| 2026-05-08 05:33 | 33.97837 | -118.39620 | 7542 ft | 247 kts | 121° |
| 2026-05-08 05:34 | 33.96915 | -118.37858 | 7253 ft | 249 kts | 121° |
| 2026-05-08 05:34 | 33.95993 | -118.36091 | 6891 ft | 247 kts | 121° |
| 2026-05-08 05:34 | 33.95068 | -118.34320 | 6500 ft | 245 kts | 121° |
| 2026-05-08 05:34 | 33.94179 | -118.32617 | 6113 ft | 241 kts | 121° |
| 2026-05-08 05:35 | 33.93375 | -118.30891 | 5712 ft | 237 kts | 111° |
| 2026-05-08 05:35 | 33.92853 | -118.29037 | 5312 ft | 233 kts | 105° |
| 2026-05-08 05:35 | 33.92387 | -118.27162 | 4913 ft | 230 kts | 105° |
| 2026-05-08 05:35 | 33.92087 | -118.25959 | 4657 ft | 228 kts | 105° |
| 2026-05-08 05:36 | 33.91478 | -118.23546 | 4135 ft | 224 kts | 105° |
| 2026-05-08 05:36 | 33.91032 | -118.21783 | 3981 ft | 215 kts | 105° |
| 2026-05-08 05:36 | 33.90596 | -118.20061 | 3970 ft | 215 kts | 105° |
| 2026-05-08 05:36 | 33.90355 | -118.18310 | 3958 ft | 212 kts | 87° |
| 2026-05-08 05:37 | 33.90483 | -118.16546 | 3968 ft | 212 kts | 82° |
| 2026-05-08 05:37 | 33.90658 | -118.14783 | 3969 ft | 208 kts | 81° |
| 2026-05-08 05:37 | 33.90826 | -118.13103 | 3968 ft | 198 kts | 81° |
| 2026-05-08 05:37 | 33.90989 | -118.11471 | 3970 ft | 193 kts | 82° |
| 2026-05-08 05:38 | 33.91146 | -118.09882 | 3972 ft | 191 kts | 82° |
| 2026-05-08 05:38 | 33.91302 | -118.08307 | 3972 ft | 191 kts | 82° |
| 2026-05-08 05:38 | 33.91540 | -118.06740 | 3951 ft | 189 kts | 64° |
| 2026-05-08 05:38 | 33.92401 | -118.05605 | 3935 ft | 184 kts | 25° |
| 2026-05-08 05:39 | 33.93639 | -118.05404 | 3931 ft | 182 kts | 348° |
| 2026-05-08 05:39 | 33.94694 | -118.06202 | 3930 ft | 185 kts | 309° |
| 2026-05-08 05:39 | 33.95226 | -118.07632 | 3956 ft | 188 kts | 292° |
| 2026-05-08 05:39 | 33.95637 | -118.09132 | 3813 ft | 192 kts | 291° |
| 2026-05-08 05:40 | 33.96062 | -118.10663 | 3478 ft | 193 kts | 291° |
| 2026-05-08 05:40 | 33.96312 | -118.12247 | 3049 ft | 199 kts | 272° |
| 2026-05-08 05:40 | 33.96211 | -118.13864 | 2960 ft | 185 kts | 266° |
| 2026-05-08 05:40 | 33.96066 | -118.15385 | 2942 ft | 182 kts | 266° |
| 2026-05-08 05:41 | 33.95913 | -118.16903 | 2958 ft | 182 kts | 265° |
| 2026-05-08 05:41 | 33.95765 | -118.18361 | 2949 ft | 170 kts | 265° |
| 2026-05-08 05:41 | 33.95626 | -118.19747 | 2955 ft | 162 kts | 266° |
| 2026-05-08 05:41 | 33.95493 | -118.21076 | 2879 ft | 160 kts | 265° |
| 2026-05-08 05:42 | 33.95360 | -118.22385 | 2684 ft | 156 kts | 265° |
| 2026-05-08 05:42 | 33.95228 | -118.23686 | 2486 ft | 155 kts | 265° |
| 2026-05-08 05:42 | 33.95097 | -118.24970 | 2289 ft | 155 kts | 265° |
| 2026-05-08 05:42 | 33.94967 | -118.26248 | 2088 ft | 154 kts | 265° |
| 2026-05-08 05:43 | 33.94836 | -118.27530 | 1886 ft | 155 kts | 264° |
| 2026-05-08 05:43 | 33.94747 | -118.28396 | 1748 ft | 155 kts | 264° |
| 2026-05-08 05:43 | 33.94616 | -118.29677 | 1544 ft | 154 kts | 264° |
| 2026-05-08 05:43 | 33.94444 | -118.31365 | 1272 ft | 152 kts | 264° |
| 2026-05-08 05:44 | 33.94315 | -118.32628 | 1064 ft | 150 kts | 263° |
| 2026-05-08 05:44 | 33.94188 | -118.33869 | 863 ft | 148 kts | 263° |
| 2026-05-08 05:44 | 33.94063 | -118.35089 | 664 ft | 147 kts | 263° |
| 2026-05-08 05:44 | 33.93943 | -118.36303 | 468 ft | 146 kts | 263° |
| 2026-05-08 05:45 | 33.93810 | -118.37505 | 278 ft | 145 kts | 262° |
| 2026-05-08 05:45 | 33.93691 | -118.38702 | 120 ft | 141 kts | 263° |
| 2026-05-08 05:45 | 33.93585 | -118.39746 | 123 ft | 97 kts | 263° |
| 2026-05-08 05:45 | 33.93546 | -118.40125 | 129 ft | 40 kts | 262° |
| 2026-05-08 05:46 | 33.93542 | -118.40450 | 134 ft | 27 kts | 283° |
| 2026-05-08 05:46 | 33.93581 | -118.40594 | 137 ft | 9 kts | 288° |
| 2026-05-08 05:46 | 33.93597 | -118.40662 | 138 ft | 7 kts | 282° |
| 2026-05-08 05:46 | 33.93598 | -118.40691 | 138 ft | 0 kts | 270° |
| 2026-05-08 05:47 | 33.93595 | -118.40753 | 139 ft | 8 kts | 265° |
| 2026-05-08 05:47 | 33.93595 | -118.40758 | 139 ft | 0 kts | 265° |
| 2026-05-08 05:48 | 33.93592 | -118.40781 | 139 ft | 0 kts | 261° |
| 2026-05-08 05:49 | 33.93592 | -118.40827 | 140 ft | 9 kts | 283° |
| 2026-05-08 05:49 | 33.93636 | -118.40884 | 140 ft | 9 kts | 340° |
| 2026-05-08 05:50 | 33.93700 | -118.40902 | 141 ft | 9 kts | 351° |
| 2026-05-08 05:50 | 33.93763 | -118.40900 | 141 ft | 8 kts | 27° |
| 2026-05-08 05:50 | 33.93790 | -118.40845 | 142 ft | 7 kts | 77° |
| 2026-05-08 05:50 | 33.93801 | -118.40772 | 141 ft | 10 kts | 82° |
| 2026-05-08 05:51 | 33.93812 | -118.40652 | 141 ft | 16 kts | 84° |
| 2026-05-08 05:51 | 33.93817 | -118.40590 | 139 ft | 8 kts | 84° |
| 2026-05-08 05:51 | 33.93863 | -118.40532 | 138 ft | 9 kts | 4° |
| 2026-05-08 05:51 | 33.93925 | -118.40504 | 137 ft | 10 kts | 34° |
| 2026-05-08 05:52 | 33.93965 | -118.40474 | 136 ft | 3 kts | 32° |
| 2026-05-08 05:52 | 33.93966 | -118.40473 | 136 ft | 0 kts | 32° |